Morgan, TX (76671)

7:48 PM CDT on September 23, 2014 (GMT -0500)
Harris 424 Ranch | Change Station
CLOSE
Current Station
Personal Weather Station
Location: Walnut Springs, TX
Elevation: 810 ft
Nearby Weather Stations

Elev 810 ft 32.13 °N, 97.67 °W | Updated 18 seconds ago

Partly Cloudy
Partly Cloudy
75.9 °F
Feels Like 78 °F
N
4.0
Wind Variable Wind from East
Gusts 4.0 mph

Today
High -- | Low -- °F
--% Chance of Precip.
Yesterday
High -- | Low -- °F
Precip. -- in
7:19 AM 7:25 PM
Waning Crescent, 0% visible
Pressure 30.09 in
Visibility 10.0 miles
Clouds Clear
Heat Index 78 °F
Dew Point 52 °F
Humidity 43%
Rainfall 0.00 in
Snow Depth Not available.
UV 0 out of 12
Pollen 10.20 out of 12
Ozone Good
PM2.5 Good
Flu Activity Not available.
METAR KCPT 240035Z AUTO 11006KT 10SM CLR 24/10 A3009 RMK AO2

More Conditions Fewer Conditions

Pressure 30.09 in
Visibility 10.0 miles
Clouds Clear
Heat Index 78 °F
Dew Point 52 °F
Humidity 43%
Rainfall 0.00 in
Snow Depth Not available.
UV 0 out of 12
Pollen 10.20 out of 12
Ozone Good
PM2.5 Good
Flu Activity Not available.
METAR KCPT 240035Z AUTO 11006KT 10SM CLR 24/10 A3009 RMK AO2

More Conditions Fewer Conditions

10-Day Weather Forecast

Almanac

Astronomy

Sep. 23, 2014 Rise Set
Actual Time 7:19 AM CDT 7:25 PM CDT
Civil Twilight 6:54 AM CDT 7:50 PM CDT
Nautical Twilight 6:26 AM CDT 8:18 PM CDT
Astronomical Twilight 5:57 AM CDT 8:47 PM CDT
Moon 6:45 AM CDT (9/23) 7:06 PM CDT (9/23)
Length of Visible Light 12h 55m
Length of Day
12h 06m
Tomorrow will be 1m 57s shorter.
Waning Crescent, 0% of the Moon is Illuminated
Today
Waning Crescent
Sep 24
New
Oct 1
First Quarter
Oct 8
Full
Oct 15
Last Quarter

Today's Extremes

State Highs State Lows

Community

WunderPhotos

Upload Photos

1,755,834 photos uploaded!

Nearby

Air Quality

  Air Quality AQ Index Pollutant
Yesterday Good
OZONE
Yesterday Good
PM2.5
Current Good
OZONE
Current Good
PM2.5
Tuesday Good
PM10
Tuesday Good
OZONE
Wednesday Moderate
OZONE
Wednesday Good
PM10
Thursday Moderate
OZONE
Thursday Good
PM10
Friday Moderate
OZONE
Friday Good
PM10

Snow Depth

Station Depth Elevation
No new snow has been reported.

Earthquake Activity

City Distance Mag. Time & Date
No recent earthquake activity has been reported nearby.
Minimum magnitude displayed is 2.5.

Coastal Water Temperatures

Place Temperature
No Stations Reporting

Nearby Weather Stations